createdAt,value
2022-11-05T00:00:17.230Z,3.63
2022-11-05T00:03:01.654Z,2.92
2022-11-05T00:05:47.500Z,3.40
2022-11-05T00:08:34.477Z,3.42
2022-11-05T00:11:02.182Z,4.07
2022-11-05T00:13:47.767Z,3.90
2022-11-05T00:16:35.319Z,3.60
2022-11-05T00:19:10.324Z,3.75
2022-11-05T00:21:57.368Z,3.60
2022-11-05T00:24:43.726Z,3.45
2022-11-05T00:27:11.840Z,3.15
2022-11-05T00:29:39.523Z,3.38
2022-11-05T00:32:07.598Z,3.60
2022-11-05T00:34:35.279Z,3.55
2022-11-05T00:37:02.905Z,3.53
2022-11-05T00:39:33.716Z,2.78
2022-11-05T00:42:22.488Z,3.40
2022-11-05T00:45:02.301Z,3.40
2022-11-05T00:47:50.656Z,3.35
2022-11-05T00:50:21.666Z,3.00
2022-11-05T00:52:59.916Z,3.30
2022-11-05T00:55:34.761Z,3.13
2022-11-05T00:58:04.376Z,3.38
2022-11-05T01:00:33.948Z,3.20
2022-11-05T01:03:02.919Z,3.15
2022-11-05T01:05:32.117Z,3.70
2022-11-05T01:07:59.892Z,3.17
2022-11-05T01:10:29.564Z,3.72
2022-11-05T01:12:57.484Z,3.25
2022-11-05T01:15:25.317Z,2.80
2022-11-05T01:17:53.117Z,3.33
2022-11-05T01:20:20.914Z,2.95
2022-11-05T01:22:48.621Z,3.40
2022-11-05T01:25:16.495Z,3.63
2022-11-05T01:27:45.810Z,3.67
2022-11-05T01:30:14.571Z,3.30
2022-11-05T01:32:42.485Z,3.40
2022-11-05T01:35:14.128Z,3.30
2022-11-05T01:37:42.008Z,3.15
2022-11-05T01:40:13.017Z,2.67
2022-11-05T01:42:40.914Z,3.63
2022-11-05T01:45:16.060Z,3.15
2022-11-05T01:47:56.272Z,3.38
2022-11-05T01:50:30.616Z,3.53
2022-11-05T01:53:03.348Z,3.28
2022-11-05T01:55:35.120Z,3.15
2022-11-05T01:58:04.333Z,3.05
2022-11-05T02:00:33.420Z,3.08
2022-11-05T02:03:01.202Z,3.35
2022-11-05T02:05:29.578Z,3.67
2022-11-05T02:07:57.482Z,3.75
2022-11-05T02:10:25.630Z,3.80
2022-11-05T02:12:53.300Z,4.53
2022-11-05T02:15:28.581Z,4.72
2022-11-05T02:18:12.339Z,3.85
2022-11-05T02:20:51.821Z,8.57
2022-11-05T02:24:06.429Z,5.63
2022-11-05T02:27:05.214Z,7.55
2022-11-05T02:30:04.702Z,10.80
2022-11-05T02:32:42.080Z,4.95
2022-11-05T02:35:19.676Z,5.05
2022-11-05T02:37:54.130Z,4.30
2022-11-05T02:40:27.885Z,4.25
2022-11-05T02:43:04.540Z,4.07
2022-11-05T02:45:42.047Z,4.38
2022-11-05T02:48:18.951Z,4.40
2022-11-05T02:50:54.221Z,5.80
2022-11-05T02:53:31.514Z,4.45
2022-11-05T02:56:04.711Z,4.32
2022-11-05T02:58:34.946Z,5.40
2022-11-05T03:01:06.839Z,4.82
2022-11-05T03:03:38.588Z,4.80
2022-11-05T03:06:24.890Z,4.68
2022-11-05T03:09:08.574Z,4.47
2022-11-05T03:11:43.405Z,4.70
2022-11-05T03:14:21.562Z,5.40
2022-11-05T03:16:56.195Z,4.78
2022-11-05T03:19:35.301Z,5.00
2022-11-05T03:22:06.849Z,4.90
2022-11-05T03:24:36.612Z,6.53
2022-11-05T03:27:08.339Z,5.13
2022-11-05T03:29:39.957Z,5.38
2022-11-05T03:32:11.025Z,5.22
2022-11-05T03:34:50.256Z,4.70
2022-11-05T03:37:21.166Z,4.40
2022-11-05T03:39:51.868Z,5.50
2022-11-05T03:42:25.820Z,5.30
2022-11-05T03:44:57.872Z,5.53
2022-11-05T03:47:28.856Z,5.35
2022-11-05T03:50:04.285Z,5.93
2022-11-05T03:52:36.879Z,6.70
2022-11-05T03:55:05.055Z,5.65
2022-11-05T03:57:37.525Z,5.65
2022-11-05T04:00:09.304Z,4.93
2022-11-05T04:02:39.722Z,6.18
2022-11-05T04:05:09.202Z,5.32
2022-11-05T04:07:54.335Z,5.40
2022-11-05T04:10:39.697Z,5.20
2022-11-05T04:13:25.273Z,5.50
2022-11-05T04:16:10.586Z,5.25
2022-11-05T04:18:38.440Z,4.55
2022-11-05T04:21:25.639Z,5.15
2022-11-05T04:24:12.720Z,5.38
2022-11-05T04:26:43.567Z,4.90
2022-11-05T04:29:29.262Z,5.40
2022-11-05T04:31:57.076Z,5.15
2022-11-05T04:34:24.883Z,5.13
2022-11-05T04:36:54.058Z,6.05
2022-11-05T04:39:22.404Z,5.25
2022-11-05T04:41:50.175Z,5.75
2022-11-05T04:44:18.148Z,4.80
2022-11-05T04:46:45.856Z,5.32
2022-11-05T04:49:13.534Z,4.80
2022-11-05T04:51:41.157Z,5.40
2022-11-05T04:54:10.298Z,4.88
2022-11-05T04:56:37.995Z,4.70
2022-11-05T04:59:05.686Z,4.72
2022-11-05T05:01:34.945Z,5.30
2022-11-05T05:04:02.750Z,4.93
2022-11-05T05:06:30.369Z,4.65
2022-11-05T05:08:58.016Z,5.45
2022-11-05T05:11:27.001Z,5.13
2022-11-05T05:13:54.569Z,5.43
2022-11-05T05:16:24.151Z,5.78
2022-11-05T05:18:52.505Z,5.47
2022-11-05T05:21:38.717Z,5.22
2022-11-05T05:24:08.761Z,5.90
2022-11-05T05:26:38.064Z,5.70
2022-11-05T05:29:06.854Z,5.63
2022-11-05T05:31:35.581Z,5.82
2022-11-05T05:34:03.882Z,5.93
2022-11-05T05:36:31.843Z,6.15
2022-11-05T05:38:59.549Z,5.18
2022-11-05T05:41:27.341Z,5.63
2022-11-05T05:43:56.275Z,5.95
2022-11-05T05:46:23.869Z,5.30
2022-11-05T05:48:52.842Z,5.28
2022-11-05T05:51:20.741Z,5.03
2022-11-05T05:53:48.303Z,5.68
2022-11-05T05:56:19.205Z,5.93
2022-11-05T05:58:47.538Z,5.47
2022-11-05T06:01:20.127Z,5.60
2022-11-05T06:03:48.297Z,5.40
2022-11-05T06:06:20.823Z,6.82
2022-11-05T06:08:48.933Z,6.95
2022-11-05T06:11:16.777Z,6.93
2022-11-05T06:13:44.420Z,6.15
2022-11-05T06:16:12.359Z,5.97
2022-11-05T06:18:41.376Z,5.97
2022-11-05T06:21:10.856Z,5.53
2022-11-05T06:23:40.255Z,5.18
2022-11-05T06:26:10.106Z,5.72
2022-11-05T06:28:37.847Z,6.35
2022-11-05T06:31:05.767Z,5.20
2022-11-05T06:33:33.480Z,4.72
2022-11-05T06:36:03.347Z,7.18
2022-11-05T06:38:33.953Z,5.30
2022-11-05T06:41:07.222Z,5.10
2022-11-05T06:43:37.628Z,4.68
2022-11-05T06:46:05.463Z,4.85
2022-11-05T06:48:33.132Z,6.30
2022-11-05T06:51:02.252Z,5.45
2022-11-05T06:53:30.490Z,5.45
2022-11-05T06:55:58.163Z,5.45
2022-11-05T06:58:26.715Z,6.40
2022-11-05T07:00:54.423Z,6.15
2022-11-05T07:03:22.103Z,5.68
2022-11-05T07:05:50.857Z,4.97
2022-11-05T07:08:19.788Z,5.05
2022-11-05T07:10:50.330Z,5.40
2022-11-05T07:13:17.954Z,5.10
2022-11-05T07:15:45.561Z,5.30
2022-11-05T07:18:13.158Z,6.70
2022-11-05T07:20:40.877Z,5.25
2022-11-05T07:23:11.521Z,3.78
2022-11-05T07:25:41.892Z,4.90
2022-11-05T07:28:10.537Z,4.90
2022-11-05T07:30:38.521Z,3.95
2022-11-05T07:33:06.545Z,5.55
2022-11-05T07:35:34.274Z,4.72
2022-11-05T07:38:02.071Z,4.97
2022-11-05T07:40:30.723Z,5.45
2022-11-05T07:43:01.371Z,4.95
2022-11-05T07:45:31.062Z,5.90
2022-11-05T07:48:00.646Z,4.40
2022-11-05T07:50:30.209Z,3.97
2022-11-05T07:53:01.824Z,4.10
2022-11-05T07:55:29.986Z,3.50
2022-11-05T07:57:59.356Z,5.20
2022-11-05T08:00:28.158Z,4.80
2022-11-05T08:03:07.415Z,4.68
2022-11-05T08:05:37.507Z,4.13
2022-11-05T08:08:05.849Z,3.60
2022-11-05T08:10:35.493Z,4.55
2022-11-05T08:13:04.784Z,4.75
2022-11-05T08:15:32.663Z,4.03
2022-11-05T08:18:00.618Z,4.00
2022-11-05T08:20:28.907Z,3.88
2022-11-05T08:22:56.884Z,4.32
2022-11-05T08:25:26.808Z,4.93
2022-11-05T08:28:01.234Z,4.07
2022-11-05T08:30:37.080Z,4.78
2022-11-05T08:33:08.920Z,4.70
2022-11-05T08:35:38.120Z,3.88
2022-11-05T08:38:07.691Z,3.90
2022-11-05T08:40:37.084Z,4.13
2022-11-05T08:43:07.163Z,3.88
2022-11-05T08:45:38.625Z,5.40
2022-11-05T08:48:15.116Z,3.35
2022-11-05T08:50:44.106Z,3.47
2022-11-05T08:53:12.832Z,4.00
2022-11-05T08:55:41.213Z,3.70
2022-11-05T08:58:12.387Z,4.03
2022-11-05T09:00:42.129Z,3.40
2022-11-05T09:03:12.968Z,3.75
2022-11-05T09:05:42.870Z,3.13
2022-11-05T09:08:13.784Z,3.53
2022-11-05T09:10:42.829Z,2.97
2022-11-05T09:13:17.782Z,3.83
2022-11-05T09:15:47.951Z,3.08
2022-11-05T09:18:16.140Z,3.58
2022-11-05T09:20:44.417Z,3.10
2022-11-05T09:23:14.729Z,2.80
2022-11-05T09:25:42.603Z,3.05
2022-11-05T09:28:16.164Z,3.22
2022-11-05T09:30:45.889Z,2.85
2022-11-05T09:33:15.932Z,3.10
2022-11-05T09:35:43.901Z,2.80
2022-11-05T09:38:11.607Z,3.15
2022-11-05T09:40:43.906Z,2.83
2022-11-05T09:43:18.346Z,3.00
2022-11-05T09:45:49.247Z,3.42
2022-11-05T09:48:22.411Z,2.85
2022-11-05T09:50:51.320Z,3.17
2022-11-05T09:53:30.310Z,3.03
2022-11-05T09:56:01.259Z,3.10
2022-11-05T09:58:43.515Z,2.70
2022-11-05T10:01:16.576Z,2.80
2022-11-05T10:03:50.604Z,2.72
2022-11-05T10:06:25.045Z,2.70
2022-11-05T10:09:03.057Z,3.28
2022-11-05T10:11:43.495Z,2.55
2022-11-05T10:14:24.762Z,2.35
2022-11-05T10:17:06.765Z,2.50
2022-11-05T10:19:57.406Z,2.75
2022-11-05T10:22:26.367Z,2.67
2022-11-05T10:24:57.608Z,2.60
2022-11-05T10:27:30.009Z,2.58
2022-11-05T10:29:58.084Z,3.15
2022-11-05T10:32:41.508Z,2.72
2022-11-05T10:35:22.733Z,2.58
2022-11-05T10:37:54.454Z,2.30
2022-11-05T10:40:48.097Z,2.35
2022-11-05T10:43:20.930Z,2.88
2022-11-05T10:45:54.929Z,2.72
2022-11-05T10:48:37.013Z,2.67
2022-11-05T10:51:10.416Z,3.20
2022-11-05T10:53:42.721Z,3.05
2022-11-05T10:56:29.022Z,2.92
2022-11-05T10:58:59.277Z,3.03
2022-11-05T11:01:58.163Z,3.38
2022-11-05T11:04:34.908Z,2.53
2022-11-05T11:07:26.069Z,3.03
2022-11-05T11:10:31.912Z,2.78
2022-11-05T11:12:59.762Z,2.10
2022-11-05T11:15:32.415Z,2.75
2022-11-05T11:18:18.593Z,3.53
2022-11-05T11:20:47.453Z,2.53
2022-11-05T11:23:17.690Z,2.28
2022-11-05T11:25:49.016Z,2.42
2022-11-05T11:28:21.120Z,2.65
2022-11-05T11:30:52.538Z,2.38
2022-11-05T11:33:26.389Z,2.40
2022-11-05T11:35:54.205Z,2.40
2022-11-05T11:38:27.358Z,2.70
2022-11-05T11:41:02.233Z,2.70
2022-11-05T11:43:38.713Z,3.22
2022-11-05T11:46:15.444Z,4.30
2022-11-05T11:48:49.093Z,3.38
2022-11-05T11:51:20.949Z,2.35
2022-11-05T11:53:50.807Z,2.80
2022-11-05T11:56:20.305Z,2.65
2022-11-05T11:58:52.461Z,3.15
2022-11-05T12:01:49.885Z,3.90
2022-11-05T12:04:36.081Z,4.97
2022-11-05T12:07:22.939Z,3.47
2022-11-05T12:10:01.101Z,2.33
2022-11-05T12:12:36.621Z,2.70
2022-11-05T12:15:22.572Z,3.30
2022-11-05T12:18:01.957Z,2.83
2022-11-05T12:20:40.343Z,3.30
2022-11-05T12:23:33.221Z,2.47
2022-11-05T12:26:24.923Z,2.00
2022-11-05T12:29:19.611Z,2.15
2022-11-05T12:31:57.889Z,2.15
2022-11-05T12:34:38.544Z,5.93
2022-11-05T12:37:19.176Z,3.80
2022-11-05T12:40:02.690Z,5.85
2022-11-05T12:42:57.684Z,2.92
2022-11-05T12:45:39.161Z,4.13
2022-11-05T12:48:32.800Z,4.55
2022-11-05T12:51:15.454Z,4.72
2022-11-05T12:53:57.270Z,3.33
2022-11-05T12:56:33.415Z,2.80
2022-11-05T12:59:15.400Z,3.25
2022-11-05T13:01:47.322Z,2.45
2022-11-05T13:04:30.857Z,5.68
2022-11-05T13:07:03.290Z,3.65
2022-11-05T13:09:36.394Z,2.67
2022-11-05T13:12:08.643Z,3.63
2022-11-05T13:14:44.758Z,2.67
2022-11-05T13:17:15.853Z,3.83
2022-11-05T13:19:49.560Z,2.88
2022-11-05T13:22:30.102Z,2.60
2022-11-05T13:25:02.417Z,2.53
2022-11-05T13:27:49.714Z,2.65
2022-11-05T13:30:25.122Z,2.95
2022-11-05T13:33:01.126Z,2.30
2022-11-05T13:35:32.566Z,3.47
2022-11-05T13:38:23.043Z,2.50
2022-11-05T13:41:07.295Z,4.28
2022-11-05T13:43:49.609Z,4.72
2022-11-05T13:46:37.731Z,4.38
2022-11-05T13:49:20.179Z,3.58
2022-11-05T13:51:52.541Z,5.22
2022-11-05T13:54:57.510Z,5.15
2022-11-05T13:57:40.355Z,5.60
2022-11-05T14:00:13.351Z,4.65
2022-11-05T14:02:46.526Z,3.67
2022-11-05T14:05:24.872Z,3.70
2022-11-05T14:07:54.166Z,4.80
2022-11-05T14:10:31.469Z,5.13
2022-11-05T14:13:02.528Z,4.90
2022-11-05T14:15:32.371Z,6.07
2022-11-05T14:18:03.643Z,4.05
2022-11-05T14:20:47.387Z,4.68
2022-11-05T14:23:51.602Z,3.83
2022-11-05T14:26:22.168Z,4.35
2022-11-05T14:29:25.239Z,3.47
2022-11-05T14:32:13.830Z,2.70
2022-11-05T14:34:48.125Z,3.20
2022-11-05T14:37:33.498Z,3.45
2022-11-05T14:40:28.166Z,3.78
2022-11-05T14:42:57.925Z,3.33
2022-11-05T14:45:31.211Z,4.03
2022-11-05T14:48:01.301Z,3.58
2022-11-05T14:50:35.715Z,3.33
2022-11-05T14:53:11.363Z,3.45
2022-11-05T14:55:42.218Z,3.80
2022-11-05T14:58:28.941Z,3.15
2022-11-05T15:00:59.511Z,3.80
2022-11-05T15:03:47.457Z,3.80
2022-11-05T15:06:25.302Z,3.70
2022-11-05T15:09:14.455Z,5.43
2022-11-05T15:12:02.420Z,3.55
2022-11-05T15:14:34.484Z,3.28
2022-11-05T15:17:15.050Z,3.28
2022-11-05T15:19:43.604Z,2.90
2022-11-05T15:22:28.192Z,3.33
2022-11-05T15:24:56.239Z,3.03
2022-11-05T15:27:41.787Z,2.80
2022-11-05T15:30:21.061Z,2.50
2022-11-05T15:32:50.431Z,3.13
2022-11-05T15:35:20.985Z,3.10
2022-11-05T15:37:53.597Z,3.03
2022-11-05T15:40:30.971Z,3.10
2022-11-05T15:43:17.298Z,3.00
2022-11-05T15:45:58.544Z,3.35
2022-11-05T15:48:28.131Z,3.92
2022-11-05T15:50:58.798Z,3.28
2022-11-05T15:56:52.414Z,2.92
2022-11-05T15:59:26.005Z,3.38
2022-11-05T16:01:57.376Z,3.40
2022-11-05T16:04:29.661Z,2.83
2022-11-05T16:07:00.669Z,4.22
2022-11-05T16:09:30.116Z,3.00
2022-11-05T16:12:16.014Z,3.17
2022-11-05T16:14:43.777Z,3.95
2022-11-05T16:17:19.023Z,3.22
2022-11-05T16:19:55.096Z,4.00
2022-11-05T16:22:23.475Z,3.40
2022-11-05T16:24:54.099Z,3.72
2022-11-05T16:27:28.104Z,3.70
2022-11-05T16:29:58.106Z,3.70
2022-11-05T16:32:30.972Z,3.08
2022-11-05T16:37:56.596Z,3.30
2022-11-05T16:40:30.832Z,3.20
2022-11-05T16:43:21.692Z,3.67
2022-11-05T16:45:54.993Z,3.70
2022-11-05T16:48:39.545Z,4.13
2022-11-05T16:51:13.095Z,3.90
2022-11-05T16:53:43.169Z,3.88
2022-11-05T16:56:15.710Z,4.30
2022-11-05T16:58:48.508Z,4.00
2022-11-05T17:01:25.718Z,2.88
2022-11-05T17:03:54.517Z,3.40
2022-11-05T17:06:23.662Z,3.63
2022-11-05T17:08:53.087Z,3.67
2022-11-05T17:11:23.833Z,3.78
2022-11-05T17:13:52.410Z,4.15
2022-11-05T17:16:28.346Z,4.18
2022-11-05T17:18:58.795Z,4.63
2022-11-05T17:21:26.757Z,2.92
2022-11-05T17:24:06.877Z,4.03
2022-11-05T17:26:34.866Z,3.75
2022-11-05T17:29:22.515Z,4.00
2022-11-05T17:32:12.866Z,4.13
2022-11-05T17:35:08.254Z,4.43
2022-11-05T17:38:03.862Z,4.20
2022-11-05T17:40:53.575Z,5.05
2022-11-05T17:43:24.074Z,4.70
2022-11-05T17:45:58.647Z,4.47
2022-11-05T17:48:29.360Z,4.00
2022-11-05T17:50:57.123Z,5.10
2022-11-05T17:53:25.016Z,5.45
2022-11-05T17:55:54.008Z,5.18
2022-11-05T17:58:22.066Z,4.05
2022-11-05T18:00:49.863Z,5.65
2022-11-05T18:03:18.376Z,5.32
2022-11-05T18:05:48.981Z,4.82
2022-11-05T18:08:19.865Z,5.57
2022-11-05T18:10:54.007Z,4.82
2022-11-05T18:13:23.049Z,4.68
2022-11-05T18:15:52.991Z,4.68
2022-11-05T18:18:23.559Z,5.75
2022-11-05T18:20:53.252Z,5.50
2022-11-05T18:23:21.679Z,5.18
2022-11-05T18:25:49.973Z,4.60
2022-11-05T18:28:23.644Z,5.60
2022-11-05T18:30:53.286Z,5.35
2022-11-05T18:33:21.116Z,6.10
2022-11-05T18:35:58.677Z,5.70
2022-11-05T18:38:26.338Z,5.70
2022-11-05T18:40:53.829Z,5.15
2022-11-05T18:43:21.474Z,5.50
2022-11-05T18:45:57.415Z,6.60
2022-11-05T18:48:25.147Z,5.45
2022-11-05T18:50:55.466Z,5.68
2022-11-05T18:53:28.128Z,6.18
2022-11-05T18:55:55.786Z,6.15
2022-11-05T18:58:23.560Z,5.07
2022-11-05T19:00:51.702Z,6.13
2022-11-05T19:03:20.868Z,4.80
2022-11-05T19:05:48.407Z,5.47
2022-11-05T19:08:16.229Z,5.35
2022-11-05T19:10:49.518Z,5.55
2022-11-05T19:13:17.514Z,4.65
2022-11-05T19:15:45.283Z,5.07
2022-11-05T19:18:13.393Z,5.28
2022-11-05T19:20:42.976Z,4.60
2022-11-05T19:23:10.800Z,4.53
2022-11-05T19:25:39.066Z,4.50
2022-11-05T19:28:06.853Z,5.50
2022-11-05T19:30:34.593Z,5.68
2022-11-05T19:33:02.298Z,5.03
2022-11-05T19:35:29.869Z,6.00
2022-11-05T19:37:58.753Z,5.63
2022-11-05T19:40:26.480Z,4.80
2022-11-05T19:42:54.022Z,4.72
2022-11-05T19:45:43.501Z,5.45
2022-11-05T19:48:13.413Z,4.70
2022-11-05T19:50:44.358Z,5.05
2022-11-05T19:53:13.379Z,5.32
2022-11-05T19:55:41.452Z,4.15
2022-11-05T19:58:09.812Z,5.65
2022-11-05T20:00:38.388Z,6.30
2022-11-05T20:03:06.242Z,5.85
2022-11-05T20:05:34.146Z,5.68
2022-11-05T20:08:01.732Z,5.90
2022-11-05T20:10:30.697Z,5.90
2022-11-05T20:12:58.223Z,5.18
2022-11-05T20:15:25.852Z,6.30
2022-11-05T20:17:55.007Z,6.22
2022-11-05T20:20:23.666Z,5.63
2022-11-05T20:22:53.450Z,5.20
2022-11-05T20:25:21.360Z,6.43
2022-11-05T20:27:50.427Z,5.65
2022-11-05T20:30:18.571Z,6.43
2022-11-05T20:32:57.713Z,6.32
2022-11-05T20:35:25.812Z,6.35
2022-11-05T20:37:54.409Z,5.72
2022-11-05T20:40:22.700Z,6.85
2022-11-05T20:42:51.638Z,7.53
2022-11-05T20:45:19.664Z,6.93
2022-11-05T20:47:47.426Z,6.93
2022-11-05T20:50:15.177Z,7.20
2022-11-05T20:52:42.921Z,6.95
2022-11-05T20:55:11.008Z,7.00
2022-11-05T20:57:41.634Z,6.93
2022-11-05T21:00:12.901Z,6.60
2022-11-05T21:02:43.029Z,6.55
2022-11-05T21:05:13.328Z,6.57
2022-11-05T21:07:41.082Z,6.95
2022-11-05T21:10:09.000Z,6.68
2022-11-05T21:12:36.836Z,7.13
2022-11-05T21:15:05.813Z,6.78
2022-11-05T21:17:34.771Z,6.35
2022-11-05T21:20:02.592Z,6.68
2022-11-05T21:22:30.342Z,6.65
2022-11-05T21:24:58.422Z,6.65
2022-11-05T21:27:26.107Z,5.45
2022-11-05T21:29:53.794Z,6.97
2022-11-05T21:32:21.571Z,6.00
2022-11-05T21:34:50.599Z,5.78
2022-11-05T21:37:18.363Z,5.63
2022-11-05T21:39:52.205Z,5.97
2022-11-05T21:42:19.841Z,6.43
2022-11-05T21:44:47.562Z,6.07
2022-11-05T21:47:15.753Z,5.85
2022-11-05T21:49:43.502Z,5.28
2022-11-05T21:52:33.213Z,5.63
2022-11-05T21:55:18.556Z,5.65
2022-11-05T21:58:15.087Z,6.18
2022-11-05T22:00:42.828Z,6.45
2022-11-05T22:03:10.568Z,6.20
2022-11-05T22:05:38.573Z,5.70
2022-11-05T22:08:13.355Z,5.00
2022-11-05T22:10:43.130Z,5.57
2022-11-05T22:13:10.838Z,5.65
2022-11-05T22:15:38.524Z,5.00
2022-11-05T22:18:06.224Z,5.30
2022-11-05T22:20:33.815Z,5.47
2022-11-05T22:23:01.404Z,4.60
2022-11-05T22:25:30.396Z,5.18
2022-11-05T22:27:58.255Z,5.80
2022-11-05T22:30:28.155Z,5.13
2022-11-05T22:32:55.782Z,4.22
2022-11-05T22:35:23.361Z,4.47
2022-11-05T22:37:58.604Z,4.95
2022-11-05T22:40:26.372Z,4.90
2022-11-05T22:42:55.812Z,4.78
2022-11-05T22:45:24.069Z,4.65
2022-11-05T22:47:51.790Z,4.78
2022-11-05T22:50:19.611Z,4.90
2022-11-05T22:52:47.445Z,4.07
2022-11-05T22:55:19.020Z,3.80
2022-11-05T22:57:46.709Z,4.35
2022-11-05T23:00:18.525Z,4.22
2022-11-05T23:02:46.587Z,4.15
2022-11-05T23:05:15.754Z,3.55
2022-11-05T23:08:01.096Z,4.57
2022-11-05T23:11:00.796Z,4.18
2022-11-05T23:13:28.481Z,3.55
2022-11-05T23:16:15.099Z,4.00
2022-11-05T23:19:00.388Z,3.97
2022-11-05T23:21:45.413Z,3.75
2022-11-05T23:24:14.086Z,3.50
2022-11-05T23:26:53.929Z,3.22
2022-11-05T23:29:23.788Z,3.70
2022-11-05T23:32:10.660Z,3.38
2022-11-05T23:34:38.969Z,3.35
2022-11-05T23:37:24.826Z,3.47
2022-11-05T23:39:52.494Z,3.25
2022-11-05T23:42:41.045Z,3.78
2022-11-05T23:45:27.740Z,4.07
2022-11-05T23:48:15.912Z,4.10
2022-11-05T23:50:45.704Z,3.47
2022-11-05T23:53:13.877Z,3.40
2022-11-05T23:55:41.576Z,3.60
2022-11-05T23:58:09.871Z,2.92
